Time;durP1;ratioP1;P1;durP2;ratioP2;P2;SDS_P1;SDS_P2;PMS_P1;PMS_P2;Temp;Humidity;BMP_temperature;BMP_pressure;BME280_temperature;BME280_humidity;BME280_pressure;Samples;Min_cycle;Max_cycle;Signal;HPM_P1;HPM_P2
2022/11/08 00:02:48;;;;;;;7.00;2.90;;;12.90;99.90;;;;;;5013238;28;20238;-56
2022/11/08 00:16:22;;;;;;;6.63;3.00;;;12.80;99.90;;;;;;5006577;28;20238;-56
2022/11/08 00:18:50;;;;;;;8.53;2.70;;;12.80;99.90;;;;;;5012277;28;20235;-57
2022/11/08 00:21:18;;;;;;;6.90;2.53;;;12.80;99.90;;;;;;5006287;28;20593;-56
2022/11/08 00:23:47;;;;;;;7.20;2.80;;;12.80;99.90;;;;;;5004939;28;20684;-56
2022/11/08 00:26:15;;;;;;;7.47;2.80;;;12.80;99.90;;;;;;5013266;28;20229;-56
2022/11/08 00:28:43;;;;;;;5.20;2.43;;;12.80;99.90;;;;;;5012675;28;20238;-56
2022/11/08 00:31:11;;;;;;;7.10;3.00;;;12.80;99.90;;;;;;5012523;28;20240;-56
2022/11/08 00:33:41;;;;;;;7.03;2.70;;;12.80;99.90;;;;;;5012765;28;20220;-56
2022/11/08 00:36:09;;;;;;;10.27;2.87;;;12.80;99.90;;;;;;5013213;28;20247;-56
2022/11/08 00:38:41;;;;;;;6.93;2.80;;;12.70;99.90;;;;;;5012597;28;20230;-56
2022/11/08 00:41:10;;;;;;;7.90;2.73;;;12.70;99.90;;;;;;5013003;28;20240;-57
2022/11/08 00:43:38;;;;;;;7.13;3.03;;;12.70;99.90;;;;;;5012285;28;20252;-56
2022/11/08 00:46:06;;;;;;;8.40;2.90;;;12.70;99.90;;;;;;5004590;28;20286;-56
2022/11/08 00:48:34;;;;;;;8.43;2.80;;;12.70;99.90;;;;;;5012898;28;20252;-55
2022/11/08 00:51:04;;;;;;;5.83;2.47;;;12.70;99.90;;;;;;5004962;28;20749;-56
2022/11/08 00:53:32;;;;;;;7.37;3.00;;;12.70;99.90;;;;;;5006107;28;20719;-56
2022/11/08 00:56:01;;;;;;;8.10;2.90;;;12.70;99.90;;;;;;5011806;28;20236;-56
2022/11/08 00:58:29;;;;;;;7.67;2.60;;;12.70;99.90;;;;;;5012555;28;20228;-57
2022/11/08 01:00:58;;;;;;;6.53;2.57;;;12.60;99.90;;;;;;5012183;28;20240;-56
2022/11/08 01:03:26;;;;;;;7.20;2.87;;;12.70;99.90;;;;;;5012633;28;20231;-55
2022/11/08 01:05:55;;;;;;;5.07;2.53;;;12.60;99.90;;;;;;5012752;28;20227;-57
2022/11/08 01:08:24;;;;;;;10.93;2.90;;;12.60;99.90;;;;;;5012542;28;20232;-55
2022/11/08 01:10:52;;;;;;;6.23;2.83;;;12.60;99.90;;;;;;5012904;28;20223;-56
2022/11/08 01:13:21;;;;;;;5.90;2.80;;;12.60;99.90;;;;;;5012370;28;20220;-56
2022/11/08 01:15:49;;;;;;;4.93;2.17;;;12.60;99.90;;;;;;5004447;28;20627;-56
2022/11/08 01:18:17;;;;;;;7.67;2.67;;;12.60;99.90;;;;;;5012653;28;20228;-56
2022/11/08 01:20:48;;;;;;;7.60;2.20;;;12.60;99.90;;;;;;5007076;28;20236;-56
2022/11/08 01:23:18;;;;;;;7.63;2.83;;;12.60;99.90;;;;;;5007999;28;20242;-57
2022/11/08 01:25:48;;;;;;;5.50;2.43;;;12.50;99.90;;;;;;5010623;28;20239;-56
2022/11/08 01:28:17;;;;;;;7.17;3.00;;;12.60;99.90;;;;;;5016185;28;20230;-56
2022/11/08 01:30:46;;;;;;;6.93;2.63;;;12.60;99.90;;;;;;5015453;28;20239;-56
2022/11/08 01:33:15;;;;;;;8.70;2.90;;;12.60;99.90;;;;;;5016146;28;20232;-56
2022/11/08 01:35:45;;;;;;;8.17;2.70;;;12.60;99.90;;;;;;5015720;28;20231;-56
2022/11/08 01:38:14;;;;;;;7.23;2.47;;;12.60;99.90;;;;;;5015702;28;20688;-56
2022/11/08 01:40:44;;;;;;;4.73;2.37;;;12.60;99.90;;;;;;5015921;28;20239;-57
2022/11/08 01:43:44;;;;;;;6.23;2.73;;;12.60;99.90;;;;;;5015385;28;20568;-56
2022/11/08 01:46:44;;;;;;;6.77;2.70;;;12.60;99.90;;;;;;4947744;29;20689;-56
2022/11/08 01:49:42;;;;;;;6.57;2.47;;;12.70;99.90;;;;;;5003816;28;20636;-56
2022/11/08 01:52:21;;;;;;;5.73;2.40;;;12.70;99.90;;;;;;4987797;28;20229;-56
2022/11/08 01:54:55;;;;;;;5.43;2.47;;;12.70;99.90;;;;;;4995866;28;20228;-56
2022/11/08 01:57:26;;;;;;;6.93;2.20;;;12.70;99.90;;;;;;4995893;28;20238;-56
2022/11/08 01:59:59;;;;;;;5.47;2.27;;;12.70;99.90;;;;;;4996128;28;20593;-56
2022/11/08 02:02:28;;;;;;;6.50;2.43;;;12.70;99.90;;;;;;4995116;28;20236;-57
2022/11/08 02:04:56;;;;;;;7.13;2.93;;;12.70;99.90;;;;;;4995945;28;20244;-57
2022/11/08 02:07:25;;;;;;;8.67;2.50;;;12.70;99.90;;;;;;5009949;28;20233;-56
2022/11/08 02:09:55;;;;;;;4.97;2.20;;;12.70;99.90;;;;;;5015367;28;20223;-56
2022/11/08 02:12:25;;;;;;;5.77;2.40;;;12.80;99.90;;;;;;5015362;28;20231;-56
2022/11/08 02:14:53;;;;;;;6.00;2.20;;;12.70;99.90;;;;;;4997690;28;20233;-57
2022/11/08 02:17:22;;;;;;;7.03;2.43;;;12.80;99.90;;;;;;5000326;28;20240;-56
2022/11/08 02:19:51;;;;;;;8.67;2.53;;;12.80;99.90;;;;;;4997670;28;20233;-56
2022/11/08 02:22:26;;;;;;;5.67;2.63;;;12.80;99.90;;;;;;4995431;28;20228;-56
2022/11/08 02:24:59;;;;;;;7.23;2.40;;;12.80;99.90;;;;;;4995673;28;20715;-56
2022/11/08 02:27:27;;;;;;;7.17;2.43;;;12.80;99.90;;;;;;4995431;28;20692;-56
2022/11/08 02:29:55;;;;;;;6.37;2.30;;;12.80;99.90;;;;;;4995382;28;20320;-56
2022/11/08 02:32:25;;;;;;;5.33;2.43;;;12.80;99.90;;;;;;4993913;28;20260;-56
2022/11/08 02:34:56;;;;;;;7.53;2.27;;;12.80;99.90;;;;;;4995354;28;20224;-56
2022/11/08 02:37:26;;;;;;;8.37;2.27;;;12.80;99.90;;;;;;5011444;28;20237;-56
2022/11/08 02:39:55;;;;;;;5.30;2.03;;;12.80;99.90;;;;;;5014628;28;20236;-57
2022/11/08 02:42:23;;;;;;;8.77;2.33;;;12.80;99.90;;;;;;5014642;28;20241;-56
2022/11/08 02:44:51;;;;;;;5.40;2.10;;;12.80;99.90;;;;;;5002476;28;20256;-56
2022/11/08 02:47:19;;;;;;;7.03;2.13;;;12.80;99.90;;;;;;5014254;28;20240;-56
2022/11/08 02:49:47;;;;;;;8.43;2.30;;;12.80;99.90;;;;;;5006103;28;20238;-56
2022/11/08 02:52:16;;;;;;;6.53;2.40;;;12.80;99.90;;;;;;5014274;28;20228;-56
2022/11/08 02:54:44;;;;;;;6.90;2.33;;;12.80;99.90;;;;;;5006251;28;20240;-56
2022/11/08 02:57:13;;;;;;;8.27;2.67;;;12.90;99.90;;;;;;5014476;28;20752;-56
2022/11/08 02:59:41;;;;;;;7.40;2.57;;;12.90;99.90;;;;;;5015000;28;20679;-56
2022/11/08 03:02:09;;;;;;;6.63;2.63;;;12.80;99.90;;;;;;5010252;28;20278;-57
2022/11/08 03:04:38;;;;;;;5.27;2.17;;;12.80;99.90;;;;;;5002968;28;20236;-56
2022/11/08 03:07:06;;;;;;;9.40;2.67;;;12.80;99.90;;;;;;5005899;28;20254;-56
2022/11/08 03:09:34;;;;;;;8.70;2.37;;;12.70;99.90;;;;;;5014293;28;20565;-56
2022/11/08 03:12:02;;;;;;;6.43;2.40;;;12.70;99.90;;;;;;5014133;28;20244;-56
2022/11/08 03:14:31;;;;;;;7.67;2.43;;;12.70;99.90;;;;;;5020637;28;20232;-56
2022/11/08 03:16:59;;;;;;;5.10;2.13;;;12.70;99.90;;;;;;5014392;28;20286;-56
2022/11/08 03:19:27;;;;;;;5.90;2.30;;;12.60;99.90;;;;;;5013595;28;20239;-57
2022/11/08 03:21:55;;;;;;;8.03;2.60;;;12.60;99.90;;;;;;5005068;28;20240;-57
2022/11/08 03:24:23;;;;;;;6.53;2.40;;;12.60;99.90;;;;;;5005761;28;20235;-56
2022/11/08 03:26:51;;;;;;;6.33;2.50;;;12.60;99.90;;;;;;4997714;28;20248;-56
2022/11/08 03:29:19;;;;;;;8.03;2.60;;;12.60;99.90;;;;;;4994200;28;20237;-56
2022/11/08 03:31:48;;;;;;;5.93;2.60;;;12.60;99.90;;;;;;4993799;28;20251;-56
2022/11/08 03:34:16;;;;;;;6.93;2.47;;;12.60;99.90;;;;;;4997946;28;20239;-56
2022/11/08 03:36:44;;;;;;;4.53;1.90;;;12.60;99.90;;;;;;5014719;28;20244;-56
2022/11/08 03:39:13;;;;;;;6.37;2.40;;;12.50;99.90;;;;;;5013887;28;20608;-56
2022/11/08 03:41:41;;;;;;;10.90;2.60;;;12.50;99.90;;;;;;5013289;28;20236;-56
2022/11/08 03:44:09;;;;;;;6.23;2.50;;;12.50;99.90;;;;;;5009900;28;20306;-56
2022/11/08 03:46:37;;;;;;;7.27;2.20;;;12.50;99.90;;;;;;5009389;28;20243;-56
2022/11/08 03:49:06;;;;;;;7.07;2.47;;;12.40;99.90;;;;;;5013328;28;20227;-56
2022/11/08 03:51:34;;;;;;;5.53;2.40;;;12.40;99.90;;;;;;5004815;28;20231;-56
2022/11/08 03:54:02;;;;;;;8.03;2.10;;;12.40;99.90;;;;;;5020451;28;20696;-56
2022/11/08 03:56:30;;;;;;;8.33;2.43;;;12.40;99.90;;;;;;5013233;28;20239;-56
2022/11/08 03:58:59;;;;;;;8.37;2.50;;;12.30;99.90;;;;;;5013482;28;20231;-56
2022/11/08 04:01:27;;;;;;;6.47;2.40;;;12.30;99.90;;;;;;5012949;28;20251;-56
2022/11/08 04:03:55;;;;;;;7.67;2.23;;;12.40;99.90;;;;;;5013534;28;20725;-57
2022/11/08 04:06:24;;;;;;;8.70;2.57;;;12.30;99.90;;;;;;5013097;28;20224;-56
2022/11/08 04:08:52;;;;;;;12.00;2.97;;;12.30;99.90;;;;;;5013447;28;20282;-57
2022/11/08 04:16:52;;;;;;;6.70;2.30;;;12.30;99.90;;;;;;5010885;28;20575;-57
2022/11/08 04:22:09;;;;;;;8.73;2.43;;;12.20;99.90;;;;;;5004145;28;20243;-56
2022/11/08 04:24:37;;;;;;;7.37;2.30;;;12.20;99.90;;;;;;5004560;28;20315;-56
2022/11/08 04:27:05;;;;;;;7.47;2.80;;;12.20;99.90;;;;;;5013448;28;20619;-56
2022/11/08 04:29:34;;;;;;;7.43;2.60;;;12.20;99.90;;;;;;5012952;28;20231;-56
2022/11/08 04:32:02;;;;;;;7.90;2.43;;;12.10;99.90;;;;;;5012775;28;20235;-56
2022/11/08 04:34:30;;;;;;;9.77;2.60;;;12.10;99.90;;;;;;5012871;28;20235;-56
2022/11/08 04:36:58;;;;;;;4.97;2.10;;;12.10;99.90;;;;;;5008603;28;20235;-56
2022/11/08 04:39:28;;;;;;;7.00;2.13;;;12.10;99.90;;;;;;4998960;28;20596;-55
2022/11/08 04:41:56;;;;;;;6.87;2.63;;;12.10;99.90;;;;;;4993776;28;20227;-56
2022/11/08 04:44:29;;;;;;;6.93;2.50;;;12.00;99.90;;;;;;5005022;28;20246;-56
2022/11/08 04:46:57;;;;;;;7.73;2.30;;;12.00;99.90;;;;;;5011151;28;20263;-56
2022/11/08 04:49:25;;;;;;;6.43;2.20;;;12.00;99.90;;;;;;5012920;28;20234;-56
2022/11/08 04:51:54;;;;;;;5.97;2.30;;;12.00;99.90;;;;;;5004020;28;20270;-56
2022/11/08 04:54:23;;;;;;;4.10;2.07;;;12.00;99.90;;;;;;5004991;28;20234;-56
2022/11/08 04:56:52;;;;;;;6.23;2.07;;;12.00;99.90;;;;;;5016658;28;20700;-56
2022/11/08 04:59:20;;;;;;;7.67;2.33;;;12.00;99.90;;;;;;5016566;28;20277;-56
2022/11/08 05:01:48;;;;;;;8.17;2.40;;;12.00;99.90;;;;;;5016100;28;20247;-56
2022/11/08 05:04:17;;;;;;;7.73;2.40;;;12.00;99.90;;;;;;5016731;28;20638;-56
2022/11/08 05:06:45;;;;;;;5.43;2.23;;;12.00;99.90;;;;;;5016193;28;20239;-56
2022/11/08 05:09:13;;;;;;;7.83;2.17;;;11.90;99.90;;;;;;5016699;28;20592;-56
2022/11/08 05:11:41;;;;;;;7.20;2.33;;;11.90;99.90;;;;;;5016138;28;20229;-56
2022/11/08 05:14:10;;;;;;;5.97;2.27;;;11.90;99.90;;;;;;5012809;28;20274;-56
2022/11/08 05:16:38;;;;;;;7.97;2.80;;;11.90;99.90;;;;;;5012286;28;20239;-56
2022/11/08 05:19:06;;;;;;;8.43;2.90;;;11.80;99.90;;;;;;5016035;28;20223;-56
2022/11/08 05:24:25;;;;;;;10.83;2.50;;;11.80;99.90;;;;;;5010257;28;20240;-56
2022/11/08 05:26:53;;;;;;;8.17;2.30;;;11.80;99.90;;;;;;5015978;28;20230;-56
2022/11/08 05:29:23;;;;;;;7.53;2.60;;;11.80;99.90;;;;;;5013035;28;20230;-56
2022/11/08 05:31:51;;;;;;;5.57;2.17;;;11.80;99.90;;;;;;5015621;28;20239;-56
2022/11/08 05:34:19;;;;;;;6.23;2.43;;;11.70;99.90;;;;;;5028584;28;20258;-56
2022/11/08 05:36:47;;;;;;;5.57;2.03;;;11.80;99.90;;;;;;5020048;28;20235;-56
2022/11/08 05:39:15;;;;;;;6.67;2.33;;;11.80;99.90;;;;;;5016253;28;20683;-56
2022/11/08 05:41:43;;;;;;;8.10;2.80;;;11.70;99.90;;;;;;5015790;28;20598;-57
2022/11/08 05:44:11;;;;;;;9.57;3.10;;;11.70;99.90;;;;;;5013268;28;20241;-55
2022/11/08 05:46:40;;;;;;;9.23;3.43;;;11.70;99.90;;;;;;5000051;28;20285;-56
2022/11/08 05:49:08;;;;;;;9.53;4.20;;;11.70;99.90;;;;;;5015157;28;20230;-57
2022/11/08 05:51:36;;;;;;;10.80;4.33;;;11.70;99.90;;;;;;5007109;28;20233;-56
2022/11/08 05:54:06;;;;;;;7.47;3.73;;;11.70;99.90;;;;;;5007222;28;20230;-56
2022/11/08 05:56:35;;;;;;;10.43;4.40;;;11.70;99.90;;;;;;5014413;28;20787;-57
2022/11/08 05:59:03;;;;;;;5.47;2.80;;;11.70;99.90;;;;;;5014427;28;20730;-56
2022/11/08 06:01:32;;;;;;;7.53;3.20;;;11.70;99.90;;;;;;5010557;28;20235;-56
2022/11/08 06:04:01;;;;;;;6.00;3.13;;;11.70;99.90;;;;;;5001072;28;20251;-56
2022/11/08 06:06:29;;;;;;;7.17;3.33;;;11.70;99.90;;;;;;4994556;28;20231;-56
2022/11/08 06:08:58;;;;;;;8.10;2.70;;;11.60;99.90;;;;;;4999989;28;20234;-56
2022/11/08 06:11:27;;;;;;;7.00;3.10;;;11.60;99.90;;;;;;4996252;28;20235;-56
2022/11/08 06:13:55;;;;;;;7.37;2.30;;;11.60;99.90;;;;;;5007865;28;20238;-56
2022/11/08 06:16:25;;;;;;;5.10;2.33;;;11.60;99.90;;;;;;5008972;28;20235;-57
2022/11/08 06:18:53;;;;;;;9.90;2.60;;;11.60;99.90;;;;;;5014779;28;20234;-56
2022/11/08 06:21:22;;;;;;;8.00;3.00;;;11.60;99.90;;;;;;5010960;28;20227;-56
2022/11/08 06:23:52;;;;;;;10.17;3.33;;;11.60;99.90;;;;;;5006310;28;20314;-56
2022/11/08 06:26:20;;;;;;;4.77;2.20;;;11.60;99.90;;;;;;5003318;28;20583;-56
2022/11/08 06:28:48;;;;;;;4.57;2.23;;;11.60;99.90;;;;;;5001663;28;20844;-57
2022/11/08 06:31:16;;;;;;;7.20;2.13;;;11.60;99.90;;;;;;5000716;28;20273;-58
2022/11/08 06:33:45;;;;;;;6.37;2.40;;;11.60;99.90;;;;;;5001456;28;20226;-57
2022/11/08 06:36:13;;;;;;;7.33;2.33;;;11.60;99.90;;;;;;5001447;28;20231;-56
2022/11/08 06:38:43;;;;;;;6.80;2.30;;;11.60;99.90;;;;;;5002532;28;20281;-56
2022/11/08 06:41:17;;;;;;;5.47;2.07;;;11.50;99.90;;;;;;5001191;28;20222;-57
2022/11/08 06:43:46;;;;;;;6.10;2.20;;;11.60;99.90;;;;;;5000181;28;20258;-57
2022/11/08 06:46:14;;;;;;;6.20;2.40;;;11.60;99.90;;;;;;5002030;28;20235;-57
2022/11/08 06:48:42;;;;;;;5.80;2.00;;;11.60;99.90;;;;;;5003236;28;21441;-55
2022/11/08 06:51:10;;;;;;;7.67;2.17;;;11.60;99.90;;;;;;5001877;28;20317;-56
2022/11/08 06:53:38;;;;;;;9.53;2.50;;;11.60;99.90;;;;;;5000753;28;21376;-56
2022/11/08 06:56:08;;;;;;;6.87;2.30;;;11.60;99.90;;;;;;5000975;28;20330;-56
2022/11/08 06:58:36;;;;;;;7.53;2.20;;;11.60;99.90;;;;;;5002238;28;20790;-56
2022/11/08 07:01:06;;;;;;;5.73;2.20;;;11.60;99.90;;;;;;5000042;28;20777;-56
2022/11/08 07:03:34;;;;;;;7.03;2.30;;;11.60;99.90;;;;;;4999543;28;20240;-55
2022/11/08 07:06:02;;;;;;;7.90;2.20;;;11.60;99.90;;;;;;5001197;28;20235;-58
2022/11/08 07:08:31;;;;;;;6.93;2.17;;;11.60;99.90;;;;;;5001724;28;20227;-56
2022/11/08 07:10:59;;;;;;;5.77;1.90;;;11.60;99.90;;;;;;5001458;28;20767;-56
2022/11/08 07:13:28;;;;;;;6.83;2.30;;;11.50;99.90;;;;;;5000049;28;20242;-56
2022/11/08 07:15:58;;;;;;;7.70;2.37;;;11.60;99.90;;;;;;5001337;28;20234;-55
2022/11/08 07:18:27;;;;;;;8.67;2.40;;;11.50;99.90;;;;;;5000829;28;20232;-57
2022/11/08 07:20:58;;;;;;;7.17;2.40;;;11.60;99.90;;;;;;5001140;28;20726;-56
2022/11/08 07:23:27;;;;;;;7.30;2.20;;;11.60;99.90;;;;;;4999020;28;20232;-57
2022/11/08 07:25:55;;;;;;;6.17;2.00;;;11.60;99.90;;;;;;5001051;28;20246;-57
2022/11/08 07:28:23;;;;;;;7.03;2.77;;;11.60;99.90;;;;;;5001658;28;20238;-55
2022/11/08 07:30:57;;;;;;;5.83;2.67;;;11.60;99.90;;;;;;5000820;28;20287;-58
2022/11/08 07:33:26;;;;;;;4.50;1.77;;;11.70;99.90;;;;;;4998770;28;20234;-56
2022/11/08 07:35:54;;;;;;;4.87;2.30;;;11.70;99.90;;;;;;5000097;28;20223;-56
2022/11/08 07:38:24;;;;;;;5.23;1.87;;;11.70;99.90;;;;;;5000716;28;20260;-56
2022/11/08 07:40:56;;;;;;;6.73;2.17;;;11.70;99.90;;;;;;5000595;28;20249;-56
2022/11/08 07:43:25;;;;;;;6.73;2.20;;;11.70;99.90;;;;;;4999876;28;20784;-56
2022/11/08 07:45:59;;;;;;;6.13;2.47;;;11.70;99.90;;;;;;5015238;28;20316;-55
2022/11/08 07:48:29;;;;;;;5.20;2.30;;;11.80;99.90;;;;;;5001164;28;20572;-56
2022/11/08 07:50:57;;;;;;;5.53;2.20;;;11.90;99.90;;;;;;5000240;28;20238;-56
2022/11/08 07:53:25;;;;;;;4.33;2.00;;;11.90;99.90;;;;;;4999286;28;20270;-57
2022/11/08 07:55:53;;;;;;;8.07;2.63;;;12.00;99.90;;;;;;4999615;28;20242;-55
2022/11/08 07:58:22;;;;;;;5.43;2.10;;;12.00;99.90;;;;;;5000129;28;21046;-56
2022/11/08 08:00:50;;;;;;;7.10;2.50;;;12.10;99.90;;;;;;4999926;28;20235;-57
2022/11/08 08:03:19;;;;;;;6.90;2.00;;;12.20;99.90;;;;;;4999166;28;20231;-54
2022/11/08 08:05:52;;;;;;;4.33;2.20;;;12.30;99.90;;;;;;5000490;28;20323;-55
2022/11/08 08:08:28;;;;;;;4.80;2.13;;;12.40;99.90;;;;;;5003492;28;20246;-56
2022/11/08 08:11:00;;;;;;;6.57;1.97;;;12.60;99.90;;;;;;5003945;28;20234;-56
2022/11/08 08:13:28;;;;;;;4.37;2.13;;;12.70;99.90;;;;;;5003013;28;20232;-56
2022/11/08 08:16:00;;;;;;;5.13;1.97;;;12.70;99.90;;;;;;5003001;28;20285;-56
2022/11/08 08:18:32;;;;;;;3.60;1.90;;;12.80;99.90;;;;;;5003983;28;20226;-55
2022/11/08 08:21:00;;;;;;;7.27;1.93;;;12.80;99.90;;;;;;5000772;28;20234;-56
2022/11/08 08:23:28;;;;;;;4.17;2.00;;;12.80;99.90;;;;;;4998393;28;20234;-56
2022/11/08 08:25:56;;;;;;;5.60;2.00;;;12.80;99.90;;;;;;4999660;28;20236;-56
2022/11/08 08:28:25;;;;;;;7.97;2.40;;;12.90;99.90;;;;;;5000133;28;21219;-56
2022/11/08 08:30:55;;;;;;;6.70;2.10;;;12.90;99.90;;;;;;5003034;28;20703;-55
2022/11/08 08:33:23;;;;;;;5.80;2.70;;;12.90;99.90;;;;;;5002189;28;21355;-56
2022/11/08 08:35:59;;;;;;;5.07;1.97;;;13.10;99.90;;;;;;5004333;28;20708;-55
2022/11/08 08:38:29;;;;;;;4.10;1.83;;;13.10;99.90;;;;;;5003297;28;20243;-56
2022/11/08 08:40:57;;;;;;;6.67;2.07;;;13.20;99.90;;;;;;5004648;28;20766;-56
2022/11/08 08:43:27;;;;;;;4.20;2.00;;;13.30;99.90;;;;;;5004323;28;21595;-54
2022/11/08 08:45:59;;;;;;;4.70;1.90;;;13.30;99.90;;;;;;5004465;28;20734;-55
2022/11/08 08:48:27;;;;;;;5.97;2.07;;;13.40;99.90;;;;;;5005600;28;20235;-56
2022/11/08 08:50:57;;;;;;;4.43;1.70;;;13.40;99.90;;;;;;5006555;28;20764;-55
2022/11/08 08:53:27;;;;;;;4.80;2.00;;;13.40;99.90;;;;;;5006452;28;20636;-56
2022/11/08 08:55:55;;;;;;;6.83;2.10;;;13.50;99.90;;;;;;5002816;28;20313;-55
2022/11/08 08:58:24;;;;;;;3.77;1.83;;;13.60;99.90;;;;;;5004727;28;20243;-56
2022/11/08 09:00:52;;;;;;;4.73;2.07;;;13.80;99.90;;;;;;5003815;28;20266;-57
2022/11/08 09:03:41;;;;;;;4.30;1.60;;;13.80;99.90;;;;;;5003108;28;20235;-55
2022/11/08 09:06:09;;;;;;;4.57;1.87;;;13.70;99.90;;;;;;5003886;28;20232;-57
2022/11/08 09:08:41;;;;;;;3.90;1.80;;;13.70;99.90;;;;;;5004342;28;20327;-56
2022/11/08 09:11:11;;;;;;;5.40;1.73;;;13.70;99.90;;;;;;5005299;28;20327;-55
2022/11/08 09:13:40;;;;;;;9.20;2.20;;;13.60;99.90;;;;;;5005380;28;20671;-55
2022/11/08 09:16:09;;;;;;;5.00;1.87;;;13.60;99.90;;;;;;5005401;28;20228;-57
2022/11/08 09:18:37;;;;;;;3.57;1.67;;;13.60;99.90;;;;;;5006710;28;20241;-56
2022/11/08 09:21:06;;;;;;;4.87;2.30;;;13.70;99.90;;;;;;5005986;28;20260;-55
2022/11/08 09:23:35;;;;;;;5.13;1.83;;;13.70;99.90;;;;;;5005342;28;20244;-55
2022/11/08 09:26:06;;;;;;;5.17;1.80;;;13.70;99.90;;;;;;5005441;28;20322;-56
2022/11/08 09:28:36;;;;;;;2.60;1.87;;;13.70;99.90;;;;;;5005772;28;20655;-55
2022/11/08 09:31:07;;;;;;;4.20;2.10;;;13.80;99.90;;;;;;5005501;28;20263;-57
2022/11/08 09:33:37;;;;;;;3.97;1.90;;;13.70;99.90;;;;;;5005064;28;20236;-55
2022/11/08 09:36:08;;;;;;;5.57;2.33;;;13.60;99.90;;;;;;5005216;28;20287;-57
2022/11/08 09:38:37;;;;;;;3.93;2.00;;;13.60;99.90;;;;;;5006951;28;20244;-55
2022/11/08 09:41:48;;;;;;;7.07;2.20;;;13.50;99.90;;;;;;5002834;28;20795;-56
2022/11/08 09:44:33;;;;;;;5.03;1.97;;;13.60;99.90;;;;;;4943320;29;20287;-55
2022/11/08 09:47:04;;;;;;;4.87;2.03;;;13.70;99.90;;;;;;5001919;28;20268;-56
2022/11/08 09:49:40;;;;;;;3.60;2.00;;;13.80;99.90;;;;;;5004446;28;20290;-56
2022/11/08 09:52:12;;;;;;;6.50;2.00;;;13.80;99.90;;;;;;5003102;28;20270;-55
2022/11/08 09:54:45;;;;;;;4.83;1.83;;;13.80;99.90;;;;;;5002221;28;20240;-57
2022/11/08 09:57:20;;;;;;;4.43;2.07;;;13.90;99.90;;;;;;5026926;28;20320;-56
2022/11/08 09:59:54;;;;;;;3.73;1.87;;;14.00;99.90;;;;;;5003788;28;20231;-55
2022/11/08 10:02:26;;;;;;;4.13;1.90;;;14.00;99.90;;;;;;5001500;28;20294;-57
2022/11/08 10:05:00;;;;;;;5.57;1.90;;;14.20;99.90;;;;;;5017661;28;20240;-54
2022/11/08 10:07:35;;;;;;;6.70;2.10;;;14.20;99.90;;;;;;5002202;28;20263;-55
2022/11/08 10:10:43;;;;;;;5.37;2.00;;;14.30;99.90;;;;;;5002612;28;20724;-56
2022/11/08 10:13:22;;;;;;;3.57;1.50;;;14.50;99.90;;;;;;4999683;28;20232;-56
2022/11/08 10:16:00;;;;;;;4.53;1.80;;;14.70;99.90;;;;;;5004577;28;20280;-56
2022/11/08 10:18:39;;;;;;;4.43;1.90;;;14.90;99.90;;;;;;5004294;28;20239;-55
2022/11/08 10:21:18;;;;;;;4.87;2.00;;;14.90;99.90;;;;;;5004723;28;20225;-55
2022/11/08 10:23:53;;;;;;;4.40;1.67;;;15.00;99.90;;;;;;4999658;28;20240;-55
2022/11/08 10:26:26;;;;;;;4.60;2.00;;;15.10;99.90;;;;;;5000330;28;21114;-56
2022/11/08 10:29:00;;;;;;;5.00;1.90;;;15.10;99.90;;;;;;5001696;28;20303;-56
2022/11/08 10:31:33;;;;;;;5.93;2.10;;;14.90;99.90;;;;;;5001144;28;20946;-54
2022/11/08 10:34:04;;;;;;;5.67;1.90;;;15.00;99.90;;;;;;4999289;28;20236;-56
2022/11/08 10:36:38;;;;;;;3.63;1.90;;;15.00;99.90;;;;;;4993612;28;20959;-56
2022/11/08 10:39:15;;;;;;;4.70;1.93;;;15.00;99.90;;;;;;5001423;28;20248;-56
2022/11/08 10:41:48;;;;;;;4.60;1.87;;;15.00;99.90;;;;;;5001002;28;20346;-55
2022/11/08 10:44:19;;;;;;;5.30;1.67;;;15.10;99.90;;;;;;5000343;28;20611;-57
2022/11/08 10:46:50;;;;;;;3.03;1.43;;;15.20;99.90;;;;;;5000783;28;20307;-57
2022/11/08 10:49:21;;;;;;;2.30;1.60;;;15.10;99.90;;;;;;5001100;28;20220;-55
2022/11/08 10:51:52;;;;;;;4.80;1.90;;;15.20;99.90;;;;;;5001470;28;20244;-56
2022/11/08 10:54:49;;;;;;;5.17;1.80;;;15.30;99.90;;;;;;4999505;28;20264;-56
2022/11/08 10:57:23;;;;;;;3.57;1.77;;;15.20;99.90;;;;;;5001240;28;20229;-55
2022/11/08 10:59:55;;;;;;;4.03;1.47;;;15.10;99.90;;;;;;5002959;28;20243;-55
2022/11/08 11:02:28;;;;;;;4.70;2.00;;;15.00;99.90;;;;;;5001673;28;20233;-57
2022/11/08 11:05:20;;;;;;;2.13;1.60;;;15.20;99.90;;;;;;5001936;28;20693;-57
2022/11/08 11:08:03;;;;;;;4.23;1.80;;;15.40;99.90;;;;;;5001921;28;20264;-56
2022/11/08 11:10:35;;;;;;;4.43;1.93;;;15.40;99.90;;;;;;5004604;28;20590;-56
2022/11/08 11:13:06;;;;;;;2.97;1.80;;;15.50;99.90;;;;;;5002145;28;20233;-56
2022/11/08 11:15:39;;;;;;;4.17;1.80;;;15.60;99.90;;;;;;5002563;28;20743;-55
2022/11/08 11:18:26;;;;;;;2.43;1.57;;;15.70;99.90;;;;;;5002721;28;20248;-55
2022/11/08 11:21:06;;;;;;;3.23;1.50;;;15.70;99.90;;;;;;5002934;28;20255;-55
2022/11/08 11:23:37;;;;;;;4.07;1.60;;;15.80;99.90;;;;;;5001490;28;21076;-56
2022/11/08 11:26:06;;;;;;;4.60;1.83;;;15.70;99.90;;;;;;5001281;28;20705;-56
2022/11/08 11:28:35;;;;;;;3.50;1.67;;;15.70;99.90;;;;;;5002424;28;20248;-56
2022/11/08 11:31:16;;;;;;;3.87;1.37;;;15.60;99.90;;;;;;5002234;28;20623;-55
2022/11/08 11:33:46;;;;;;;5.37;1.73;;;15.60;99.90;;;;;;5002061;28;20320;-55
2022/11/08 11:36:19;;;;;;;5.57;1.60;;;15.60;99.90;;;;;;5000599;28;20587;-56
2022/11/08 11:38:52;;;;;;;3.40;1.70;;;15.60;99.90;;;;;;5001223;28;20237;-56
2022/11/08 11:41:26;;;;;;;2.97;1.60;;;15.60;99.90;;;;;;5001288;28;20680;-55
2022/11/08 11:44:02;;;;;;;5.23;1.67;;;15.50;99.90;;;;;;5013411;28;20244;-55
2022/11/08 11:46:39;;;;;;;3.50;1.40;;;15.40;99.90;;;;;;5000230;28;20236;-56
2022/11/08 11:49:16;;;;;;;4.23;1.77;;;15.30;99.90;;;;;;5000773;28;20728;-57
2022/11/08 11:51:44;;;;;;;5.30;2.10;;;15.30;99.90;;;;;;4998021;28;20237;-56
2022/11/08 11:54:15;;;;;;;3.77;1.87;;;15.30;99.90;;;;;;5000107;28;20226;-56
2022/11/08 11:56:51;;;;;;;3.27;1.60;;;15.30;99.90;;;;;;5001250;28;21195;-57
2022/11/08 11:59:31;;;;;;;4.23;1.80;;;15.30;99.90;;;;;;5000297;28;20657;-56
2022/11/08 12:05:08;;;;;;;4.70;2.10;;;15.30;99.90;;;;;;5090303;27;21273;-56
2022/11/08 12:07:43;;;;;;;3.77;1.70;;;15.30;99.90;;;;;;5087372;28;20241;-56
2022/11/08 12:10:19;;;;;;;4.03;2.20;;;15.30;99.90;;;;;;5088508;28;20589;-55
2022/11/08 12:13:00;;;;;;;3.17;1.60;;;15.30;99.90;;;;;;5087406;28;20710;-56
2022/11/08 12:15:34;;;;;;;4.73;2.30;;;15.20;99.90;;;;;;5089128;28;20260;-53
2022/11/08 12:18:28;;;;;;;4.63;2.50;;;15.30;99.90;;;;;;5084065;28;20254;-56
2022/11/08 12:21:14;;;;;;;5.70;2.30;;;15.20;99.90;;;;;;5085505;28;20229;-53
2022/11/08 12:24:14;;;;;;;3.13;2.10;;;15.30;99.90;;;;;;5088470;28;20754;-56
2022/11/08 12:26:51;;;;;;;3.60;2.30;;;15.20;99.90;;;;;;5086803;28;20238;-55
2022/11/08 12:29:24;;;;;;;2.73;1.57;;;15.20;99.90;;;;;;5088529;28;20222;-55
2022/11/08 12:32:05;;;;;;;5.33;2.30;;;15.30;99.90;;;;;;5077022;28;20729;-55
2022/11/08 12:34:43;;;;;;;4.37;2.37;;;15.30;99.90;;;;;;5069749;28;20284;-56
2022/11/08 12:37:22;;;;;;;3.23;1.40;;;15.30;99.90;;;;;;5069402;28;20689;-57
2022/11/08 12:39:59;;;;;;;3.57;1.80;;;15.40;99.90;;;;;;5055180;28;20684;-55
2022/11/08 12:42:53;;;;;;;6.47;1.80;;;15.40;99.90;;;;;;5051542;28;20231;-56
2022/11/08 12:45:38;;;;;;;3.00;1.90;;;15.40;99.90;;;;;;5052565;28;20272;-56
2022/11/08 12:48:18;;;;;;;2.93;1.53;;;15.50;99.90;;;;;;5051117;28;20223;-55
2022/11/08 12:50:56;;;;;;;3.97;1.60;;;15.50;99.90;;;;;;5051316;28;20614;-56
2022/11/08 12:53:56;;;;;;;4.67;2.00;;;15.60;99.90;;;;;;5047891;28;21380;-55
2022/11/08 12:56:28;;;;;;;4.00;1.80;;;15.60;99.90;;;;;;5051275;28;20232;-56
2022/11/08 12:58:57;;;;;;;3.13;1.90;;;15.60;99.90;;;;;;5051057;28;20587;-53
2022/11/08 13:01:26;;;;;;;2.30;1.47;;;15.60;99.90;;;;;;5054689;28;20231;-54
2022/11/08 13:04:04;;;;;;;3.50;1.50;;;15.60;99.90;;;;;;5064397;28;20252;-56
2022/11/08 13:06:42;;;;;;;2.70;1.40;;;15.60;99.90;;;;;;5066054;28;21339;-55
2022/11/08 13:09:21;;;;;;;4.90;1.90;;;15.60;99.90;;;;;;5064941;28;20262;-56
2022/11/08 13:11:56;;;;;;;2.83;1.43;;;15.60;99.90;;;;;;5065848;28;20590;-55
2022/11/08 13:14:24;;;;;;;4.03;1.40;;;15.60;99.90;;;;;;5059711;28;20752;-55
2022/11/08 13:17:15;;;;;;;2.80;1.63;;;15.60;99.90;;;;;;5048768;28;20232;-56
2022/11/08 13:20:01;;;;;;;4.07;1.80;;;15.60;99.90;;;;;;5044656;28;20605;-55
2022/11/08 13:22:58;;;;;;;1.83;1.30;;;15.50;99.90;;;;;;5047441;28;20238;-56
2022/11/08 13:25:39;;;;;;;2.87;1.53;;;15.50;99.90;;;;;;5046182;28;20706;-55
2022/11/08 13:28:36;;;;;;;3.00;1.33;;;15.50;99.90;;;;;;5046991;28;20242;-57
2022/11/08 13:31:16;;;;;;;2.13;1.27;;;15.50;99.90;;;;;;5046427;28;20736;-53
2022/11/08 13:34:01;;;;;;;2.87;1.80;;;15.50;99.90;;;;;;5046384;28;20281;-56
2022/11/08 13:36:39;;;;;;;4.63;1.87;;;15.50;99.90;;;;;;5038198;28;20261;-55